• Join FlightAware (Why Join?)
  • Login
  • US Flag 
02:14AM EDT


 

Airport Tracker/Info


-or-


 

Live Flight TrackerFlight Track Log ✈ OPT429 ✈ 16-Aug-2014 ✈ KCGF - KLNK

Flight Track Log - Related Links

Times and Time Zones

All times are in EDT time to prevent confusion due to time zone crossing. See the OPT429 flight status page for this flight to view local times or setup timezone preferences in your user account.

Time Position Orientation Groundspeed Altitude Reporting Facility
EDT Latitude Longitude Course Direction KTS MPH feet Rate Location/Type
09:12AM 41.5503 -81.5072 189° South 164 189 2,000  Level Cleveland Center
09:13AM 41.4842 -81.5219 189° South 260 299 4,600 2,400 Climbing Cleveland Center
09:14AM 41.4472 -81.5803 230° Southwest 279 321 6,900 2,520 Climbing Cleveland Center
09:15AM 41.4342 -81.6811 260° West 269 310 9,900 2,580 Climbing Cleveland Center
09:16AM 41.4192 -81.7986 260° West 274 315 12,600 2,400 Climbing Cleveland Center
09:17AM 41.4253 -81.9044 274° West 285 328 14,900 1,980 Climbing Cleveland Center
09:18AM 41.4297 -82.0144 273° West 293 337 16,700 1,740 Climbing Cleveland Center
09:19AM 41.4339 -82.1292 273° West 305 351 18,600 1,680 Climbing Cleveland Center
09:20AM 41.4356 -82.2436 271° West 308 354 20,200 1,500 Climbing Cleveland Center
09:21AM 41.4417 -82.3614 274° West 314 361 21,700 1,440 Climbing Cleveland Center
09:22AM 41.4500 -82.4817 275° West 323 372 23,200 1,380 Climbing Cleveland Center
09:23AM 41.4569 -82.6317 274° West 337 388 24,600 1,260 Climbing Cleveland Center
09:24AM 41.4611 -82.7592 273° West 342 394 25,900 1,140 Climbing Cleveland Center
09:25AM 41.4667 -82.8903 273° West 349 402 27,000 1,080 Climbing Cleveland Center
09:26AM 41.4708 -83.0217 272° West 353 406 28,200 1,260 Climbing Cleveland Center
09:27AM 41.4764 -83.1522 273° West 353 406 29,700 1,500 Climbing Cleveland Center
09:28AM 41.4808 -83.2808 273° West 352 405 31,300 1,440 Climbing Cleveland Center
09:29AM 41.4853 -83.4097 273° West 348 400 32,700 1,320 Climbing Cleveland Center
09:30AM 41.4900 -83.5692 272° West 353 406 34,100 1,200 Climbing Cleveland Center
09:31AM 41.4944 -83.7008 273° West 355 409 35,300 960 Climbing Cleveland Center
09:32AM 41.4983 -83.8356 272° West 360 414 36,100 840 Climbing Cleveland Center
09:33AM 41.5025 -83.9703 272° West 361 415 37,100 840 Climbing Cleveland Center
09:34AM 41.5061 -84.1019 272° West 360 414 37,900 660 Climbing Cleveland Center
09:35AM 41.5092 -84.2372 272° West 361 415 38,500 600 Climbing Cleveland Center
09:36AM 41.5119 -84.3811 272° West 361 415 39,200 720 Climbing Cleveland Center
09:37AM 41.5167 -84.5142 273° West 361 415 40,100 720 Climbing Cleveland Center
09:38AM 41.5194 -84.6456 272° West 360 414 40,700 480 Climbing Cleveland Center
09:40AM 41.5222 -84.7714 272° West 346 398 41,200 360 Climbing Cleveland Center
09:40AM 41.5261 -84.8981 272° West 344 396 41,400 420 Climbing Chicago Center
09:41AM 41.5283 -85.0272 271° West 348 400 42,000 480 Climbing Chicago Center
09:42AM 41.5306 -85.1517 271° West 339 390 42,500 240 Climbing Chicago Center
09:43AM 41.5317 -85.2756 271° West 335 386 42,600 120 Climbing Chicago Center
09:44AM 41.5350 -85.4008 272° West 335 386 42,800 180 Climbing Chicago Center
09:46AM 41.5372 -85.5217 271° West 329 379 43,000 60 Climbing Chicago Center
09:47AM 41.5381 -85.6506 271° West 329 379 43,000  Level Chicago Center
09:48AM 41.5397 -85.7728 271° West 327 376 43,000  Level Chicago Center
09:49AM 41.5417 -85.9183 271° West 326 375 43,000  Level Chicago Center
09:50AM 41.5428 -86.0403 271° West 327 376 43,000  Level Chicago Center
09:51AM 41.5442 -86.1622 271° West 328 377 43,000  Level Chicago Center
09:52AM 41.5456 -86.2847 271° West 329 379 43,000  Level Chicago Center
09:53AM 41.5467 -86.4067 271° West 329 379 43,000  Level Chicago Center
09:54AM 41.5481 -86.5286 271° West 329 379 43,000  Level Chicago Center
09:55AM 41.5486 -86.6750 270° West 329 379 43,000  Level Chicago Center
09:56AM 41.5481 -86.7864 270° West 328 377 43,000  Level Chicago Center
09:57AM 41.5500 -86.9086 271° West 329 379 43,000  Level Chicago Center
09:58AM 41.5500 -87.0567 270° West 332 382 43,000  Level Chicago Center
09:59AM 41.5503 -87.1792 270° West 332 382 43,000  Level Chicago Center
10:00AM 41.5503 -87.3028 270° West 332 382 43,000  Level Chicago Center
10:01AM 41.5500 -87.4253 270° West 333 383 43,000  Level Chicago Center
10:02AM 41.5500 -87.5500 270° West 332 382 43,000  Level Chicago Center
10:03AM 41.5500 -87.6725 270° West 332 382 43,000  Level Chicago Center
10:04AM 41.5497 -87.8197 270° West 331 381 43,000  Level Chicago Center
10:05AM 41.5500 -87.9419 270° West 333 383 43,000  Level Chicago Center
10:06AM 41.5494 -88.0658 270° West 339 390 43,000  Level Chicago Center
10:07AM 41.5483 -88.1897 269° West 341 392 43,000  Level Chicago Center
10:08AM 41.5472 -88.3408 269° West 345 397 43,000  Level Chicago Center
10:09AM 41.5481 -88.4667 271° West 345 397 43,000  Level Chicago Center
10:10AM 41.5481 -88.5936 270° West 344 396 43,000  Level Chicago Center
10:11AM 41.5481 -88.7219 270° West 345 397 43,000  Level Chicago Center
10:12AM 41.5481 -88.8511 270° West 347 399 43,000  Level Chicago Center
10:13AM 41.5483 -88.9803 270° West 348 400 43,000  Level Chicago Center
10:14AM 41.5481 -89.1367 270° West 350 403 43,000  Level Chicago Center
10:15AM 41.5472 -89.2672 270° West 352 405 43,000  Level Chicago Center
10:16AM 41.5472 -89.3997 270° West 357 411 43,000  Level Chicago Center
10:18AM 41.5472 -89.5331 270° West 357 411 43,000  Level Chicago Center
10:19AM 41.5469 -89.6708 270° West 363 418 43,000  Level Chicago Center
10:20AM 41.5461 -89.8053 270° West 364 419 43,000  Level Chicago Center
10:21AM 41.5458 -89.9417 270° West 367 422 43,000  Level Chicago Center
10:22AM 41.5439 -90.1058 269° West 369 425 43,000  Level Chicago Center
10:23AM 41.5425 -90.2425 269° West 369 425 43,000  Level Chicago Center
10:24AM 41.5422 -90.3828 270° West 374 430 43,000  Level Chicago Center
10:25AM 41.5400 -90.5242 269° West 379 436 43,000  Level Chicago Center
10:26AM 41.5378 -90.6633 269° West 376 433 43,000  Level Chicago Center
10:27AM 41.5350 -90.8056 269° West 383 441 43,000  Level Chicago Center
10:28AM 41.5328 -90.9758 269° West 383 441 43,000  Level Chicago Center
10:29AM 41.5300 -91.1189 269° West 383 441 43,000  Level Chicago Center
10:30AM 41.5261 -91.2622 268° West 384 442 43,000  Level Chicago Center
10:31AM 41.5231 -91.4042 268° West 383 441 43,000  Level Chicago Center
10:32AM 41.5211 -91.5469 269° West 384 442 43,000  Level Chicago Center
10:33AM 41.5106 -91.7183 265° West 386 444 43,000  Level Chicago Center
10:34AM 41.4964 -91.8572 262° West 385 443 43,000  Level Chicago Center
10:35AM 41.4831 -91.9936 263° West 379 436 43,000  Level Chicago Center
10:36AM 41.4692 -92.1308 262° West 376 433 43,000  Level Chicago Center
10:37AM 41.4558 -92.2686 263° West 378 435 43,000  Level Chicago Center
10:38AM 41.4389 -92.4339 262° West 380 437 43,000  Level Chicago Center
10:39AM 41.4253 -92.5775 263° West 388 447 43,000  Level Chicago Center
10:40AM 41.4114 -92.7169 262° West 385 443 43,000  Level Minneapolis Center
10:41AM 41.3967 -92.8583 262° West 386 444 43,000  Level Minneapolis Center
10:42AM 41.3819 -93.0008 262° West 388 447 43,000  Level Minneapolis Center
10:43AM 41.3669 -93.1433 262° West 389 448 43,000  Level Minneapolis Center
10:44AM 41.3486 -93.3167 262° West 394 453 43,000  Level Minneapolis Center
10:45AM 41.3322 -93.4617 261° West 396 456 43,000  Level Minneapolis Center
10:46AM 41.3153 -93.6075 261° West 399 459 43,000  Level Minneapolis Center
10:47AM 41.3000 -93.7517 262° West 399 459 43,000  Level Minneapolis Center
10:48AM 41.2844 -93.8958 262° West 399 459 43,000 -420 Level Minneapolis Center
10:50AM 41.2644 -94.0697 261° West 399 459 42,200 -1,200 Descending Minneapolis Center
10:51AM 41.2458 -94.2200 261° West 405 466 40,600 -1,800 Descending Minneapolis Center
10:52AM 41.2292 -94.3681 262° West 407 468 38,600 -1,920 Descending Minneapolis Center
10:53AM 41.2114 -94.5150 261° West 406 467 36,700 -1,920 Descending Minneapolis Center
10:54AM 41.1942 -94.6742 262° West 426 490 34,700 -1,980 Descending Minneapolis Center
10:55AM 41.1733 -94.8342 260° West 436 502 32,700 -2,160 Descending Minneapolis Center
10:56AM 41.1500 -95.0233 261° West 436 502 30,300 -2,220 Descending Minneapolis Center
10:57AM 41.1431 -95.1506 266° West 435 501 28,700 -1,980 Descending Minneapolis Center
10:57AM 41.1297 -95.1817 240° Southwest 436 502 28,300 -2,040 Descending Minneapolis Center
10:57AM 41.1278 -95.2578 268° West 435 501 27,300 -1,980 Descending Minneapolis Center
10:58AM 41.1106 -95.3400 254° West 436 502 26,300 -2,400 Descending Minneapolis Center
10:58AM 41.1042 -95.4269 264° West 432 497 24,900 -2,400 Descending Minneapolis Center
10:59AM 41.0897 -95.4978 255° West 435 501 23,800 -2,340 Descending Minneapolis Center
10:59AM 41.0864 -95.5619 266° West 439 505 22,800 -2,520 Descending Minneapolis Center
11:00AM 41.0694 -95.6581 257° West 436 502 21,200 -2,700 Descending Minneapolis Center
11:00AM 41.0619 -95.7253 262° West 416 479 20,100 -2,460 Descending Minneapolis Center
11:01AM 41.0486 -95.8083 258° West 422 486 18,700 -2,520 Descending Minneapolis Center
11:01AM 41.0403 -95.8689 260° West 400 460 17,600 -2,460 Descending Minneapolis Center
11:02AM 41.0306 -95.9522 261° West 401 461 16,200 -2,400 Descending Minneapolis Center
11:02AM 41.0203 -96.0092 257° West 386 444 15,200 -2,940 Descending Minneapolis Center
11:03AM 41.0078 -96.1186 261° West 384 442 13,200 -2,700 Descending Minneapolis Center
11:03AM 40.9936 -96.1475 237° Southwest 370 426 12,500 -2,460 Descending Minneapolis Center
11:04AM 40.9481 -96.2231 231° Southwest 360 414 10,700 -2,100 Descending Minneapolis Center
11:05AM 40.8850 -96.3114 227° Southwest 342 394 8,700 -1,920 Descending Minneapolis Center
11:06AM 40.8269 -96.3894 226° Southwest 310 357 6,800 -1,860 Descending Minneapolis Center
11:07AM 40.7722 -96.4639 226° Southwest 292 336 4,900 -1,380 Descending Minneapolis Center
11:08AM 40.7194 -96.5369 226° Southwest 284 327 4,000 -900 Descending Minneapolis Center
11:09AM 40.7028 -96.6142 254° West 204 235 3,100 -540 Descending Minneapolis Center
11:10AM 40.7431 -96.6594 320° Northwest 186 214 3,000 -60 Descending Minneapolis Center
11:11AM 40.7783 -96.6889 328° Northwest 144 166 3,000 -120 Level Minneapolis Center
11:11AM 40.7950 -96.7058 322° Northwest 196 226 2,900 -960 Descending Minneapolis Center
11:12AM 40.8228 -96.7294 327° Northwest 158 182 1,900 -660 Descending Minneapolis Center
11:13AM 40.8517 -96.7569 324° Northwest 147 169 1,600 -300 Descending Minneapolis Center